메인 페이지
METAR-TAF:

METAR-TAF

공항 :

Resolute, 누나부트, 캐나다

위도: 74-43N, 경도: 094-59W, 고도: 67m

현재 날씨관측

예보는 30분 전, 07:00시(UTC)에 발표되었습니다.
북북서8kt
온도 -29°C
습도 75%
기압 1009 hPa
시정: 12.9km
고도 1500ft 상공 구름 조금
고도 2700ft 상공 구름 조금
빙정

METAR: CYRB 210700Z 33008KT 8SM IC FEW015 FEW027 M29/M32 A2981 RMK SC1SC1 SLP108

시각: 02:30 (07:30 UTC)

예보

예보는 1 시간 51분 전, 05:39시(UTC)에 발표되었습니다.
예보 대상 시간: 21일 06시부터 22일 06시까지 (UTC)
북북서8kt
시정: 10km
고도 4000ft 상공 구름 보통
고도 8000ft 상공 구름 많음
약한눈
일시적
21일 06시부터 21일 14시까지 (UTC)
시정: 6.4km
고도 3000ft 상공 흐림
약한눈
확률 30%
21일 06시부터 21일 10시까지 (UTC)
시정: 3.2km
약한눈
21일 1400시부터 (UTC)
북북동12kt
시정: 10km
고도 4000ft 상공 구름 조금
빙정
전환 중
21일 20시부터 21일 22시까지 (UTC)
18kt
전환 중
22일 03시부터 22일 05시까지 (UTC)
북북서22kt
22일 0500시부터 (UTC)
북북서22kt
시정: 6.4km
맑음
날린눈

TAF: CYRB 210539Z 2106/2206 34008KT P6SM -SN SCT040 BKN080 TEMPO 2106/2114 4SM -SN OVC030 PROB30 2106/2110 2SM -SN FM211400 02012KT P6SM IC FEW040 BECMG 2120/2122 36018KT BECMG 2203/2205 33022KT FM220500 33022KT 4SM BLSN SKC RMK NXT FCST BY 211200Z

4,000개 이상의 공항 관측 자료 및 예보 (METAR 및 TAF 보고).

지도상에서 검색 가능한 기상관측소가 노란 점과 빨간 점으로 표시되어 있습니다.

기상관측소 명을 보려면 표시 위로 마우스를 이동하세요.

날씨 관측과 예보를 보려면 클릭하세요.

지도 변경 : 확대하려면 엑스 표시가 있는 녹색 버튼, 축소하려면 빼기 표시가 있는 녹색 버튼, 다음 페이지의 지도를 보려면 녹색 화살표를 클릭하세요.


METAR-TAF: